Cinque Terre — IUTV — position and weather

sailwx.info

Track history (hours):
 
Tides and Currents Weather Stations Pressure Air Temp Water Temp Dewpoint Dewpoint Depression Visibility Wind Speed Wind Dir Waves Ship Positions

Cinque Terre

Last reported at 2017-Nov-19 10:31 UTC. Time now 2017-Dec-12 10:24 UTC.
Position N 40°35' E 014°18'.
Warning: this ship's position is 22 days out of date.

Length 15 m; draft 1 m.

Type: Passenger vessel. MMSI: 247208400.

Date/timePositionNaut miles runAvg speedWind from/ knotsBaromVisibWave heightAir tempDewpointWater temp
2017-Nov-19 10:31N 40°35' E 014°18'111.6
2017-Nov-19 10:27N 40°36' E 014°19'4 8.3
2017-Nov-19 10:00N 40°38' E 014°23'2 3.3
2017-Nov-19 09:30N 40°38' E 014°21'  
2017-Nov-10 10:17N 40°37' E 014°20'2 7.1
2017-Nov-10 10:00N 40°38' E 014°23'1 2.3
2017-Nov-10 09:30N 40°38' E 014°24'0 0.0
2017-Nov-10 09:00N 40°38' E 014°24'2 4.3
2017-Nov-10 08:30N 40°38' E 014°21'  
Track history (hours):
 
Tides and Currents Weather Stations Pressure Air Temp Water Temp Dewpoint Dewpoint Depression Visibility Wind Speed Wind Dir Waves Ship Positions

Cinque Terre

Last reported at 2017-Nov-19 10:31 UTC. Time now 2017-Dec-12 10:24 UTC.
Position N 40°35' E 014°18'.
Warning: this ship's position is 22 days out of date.

Length 15 m; draft 1 m.

Type: Passenger vessel. MMSI: 247208400.

Date/timePositionNaut miles runAvg speedWind from/ knotsBaromVisibWave heightAir tempDewpointWater temp
2017-Nov-19 10:31N 40°35' E 014°18'111.6
2017-Nov-19 10:27N 40°36' E 014°19'4 8.3
2017-Nov-19 10:00N 40°38' E 014°23'2 3.3
2017-Nov-19 09:30N 40°38' E 014°21'  
2017-Nov-10 10:17N 40°37' E 014°20'2 7.1
2017-Nov-10 10:00N 40°38' E 014°23'1 2.3
2017-Nov-10 09:30N 40°38' E 014°24'0 0.0
2017-Nov-10 09:00N 40°38' E 014°24'2 4.3
2017-Nov-10 08:30N 40°38' E 014°21'  

Dump ship's entire track history